createdAt,value
2018-07-26T00:00:20.603Z,93825.97
2018-07-26T00:02:48.262Z,93829.13
2018-07-26T00:05:15.932Z,93826.25
2018-07-26T00:07:43.555Z,93824.08
2018-07-26T00:10:11.290Z,93824.56
2018-07-26T00:12:38.909Z,93823.19
2018-07-26T00:15:07.126Z,93831.34
2018-07-26T00:17:34.725Z,93831.34
2018-07-26T00:20:02.394Z,93831.09
2018-07-26T00:22:30.063Z,93830.25
2018-07-26T00:24:57.760Z,93821.53
2018-07-26T00:27:25.418Z,93820.93
2018-07-26T00:29:53.091Z,93827.51
2018-07-26T00:32:20.703Z,93821.98
2018-07-26T00:34:48.362Z,93823.66
2018-07-26T00:37:16.108Z,93825.55
2018-07-26T00:39:43.777Z,93823.98
2018-07-26T00:42:11.412Z,93816.56
2018-07-26T00:44:39.321Z,93816.28
2018-07-26T00:47:07.010Z,93814.81
2018-07-26T00:49:34.685Z,93817.95
2018-07-26T00:52:02.392Z,93821.23
2018-07-26T00:54:30.069Z,93817.47
2018-07-26T00:56:57.686Z,93819.23
2018-07-26T00:59:25.312Z,93819.00
2018-07-26T01:01:53.002Z,93825.84
2018-07-26T01:04:20.655Z,93821.08
2018-07-26T01:06:48.283Z,93821.28
2018-07-26T01:09:15.901Z,93820.41
2018-07-26T01:11:43.579Z,93824.98
2018-07-26T01:14:11.239Z,93820.52
2018-07-26T01:16:38.903Z,93829.33
2018-07-26T01:19:06.583Z,93820.70
2018-07-26T01:21:34.222Z,93818.73
2018-07-26T01:24:01.926Z,93815.19
2018-07-26T01:26:29.534Z,93809.91
2018-07-26T01:28:57.175Z,93813.75
2018-07-26T01:31:24.841Z,93808.38
2018-07-26T01:33:52.710Z,93807.38
2018-07-26T01:36:20.370Z,93810.13
2018-07-26T01:38:48.018Z,93805.84
2018-07-26T01:41:15.830Z,93808.72
2018-07-26T01:43:50.167Z,93806.82
2018-07-26T01:46:19.227Z,93807.69
2018-07-26T01:48:46.892Z,93802.79
2018-07-26T01:51:14.571Z,93805.39
2018-07-26T01:53:42.915Z,93808.67
2018-07-26T01:56:11.018Z,93803.64
2018-07-26T01:58:38.674Z,93805.77
2018-07-26T02:01:07.639Z,93805.48
2018-07-26T02:03:35.558Z,93798.83
2018-07-26T02:06:03.295Z,93800.05
2018-07-26T02:08:31.233Z,93800.05
2018-07-26T02:10:59.406Z,93803.23
2018-07-26T02:13:27.143Z,93809.88
2018-07-26T02:15:54.790Z,93805.06
2018-07-26T02:18:22.766Z,93800.03
2018-07-26T02:20:50.986Z,93792.31
2018-07-26T02:23:18.694Z,93796.65
2018-07-26T02:25:46.635Z,93795.70
2018-07-26T02:28:14.389Z,93796.21
2018-07-26T02:30:42.577Z,93804.35
2018-07-26T02:33:10.172Z,93805.90
2018-07-26T02:35:38.134Z,93803.42
2018-07-26T02:38:06.071Z,93802.09
2018-07-26T02:40:33.746Z,93799.30
2018-07-26T02:43:01.407Z,93810.00
2018-07-26T02:45:29.063Z,93799.19
2018-07-26T02:47:56.716Z,93803.64
2018-07-26T02:50:24.334Z,93799.94
2018-07-26T02:52:52.012Z,93800.91
2018-07-26T02:55:19.641Z,93801.84
2018-07-26T02:57:47.306Z,93800.80
2018-07-26T03:00:14.958Z,93804.73
2018-07-26T03:02:42.595Z,93809.47
2018-07-26T03:05:10.278Z,93805.03
2018-07-26T03:07:38.295Z,93806.80
2018-07-26T03:10:06.292Z,93805.78
2018-07-26T03:12:33.928Z,93804.98
2018-07-26T03:15:01.631Z,93807.41
2018-07-26T03:17:29.268Z,93807.84
2018-07-26T03:19:56.930Z,93802.81
2018-07-26T03:22:24.561Z,93809.24
2018-07-26T03:24:52.190Z,93810.63
2018-07-26T03:27:19.967Z,93814.63
2018-07-26T03:29:47.602Z,93813.80
2018-07-26T03:32:15.242Z,93812.05
2018-07-26T03:34:42.882Z,93813.06
2018-07-26T03:37:10.623Z,93809.55
2018-07-26T03:39:38.303Z,93807.30
2018-07-26T03:42:05.978Z,93811.50
2018-07-26T03:44:33.590Z,93811.94
2018-07-26T03:47:01.274Z,93809.95
2018-07-26T03:49:28.957Z,93806.88
2018-07-26T03:51:56.669Z,93809.43
2018-07-26T03:54:24.350Z,93813.13
2018-07-26T03:56:52.049Z,93809.45
2018-07-26T03:59:19.727Z,93807.00
2018-07-26T04:01:47.374Z,93812.02
2018-07-26T04:04:15.026Z,93814.09
2018-07-26T04:06:42.765Z,93813.58
2018-07-26T04:09:13.127Z,93818.91
2018-07-26T04:11:41.833Z,93819.13
2018-07-26T04:14:09.465Z,93823.48
2018-07-26T04:16:37.111Z,93816.96
2018-07-26T04:19:04.974Z,93815.63
2018-07-26T04:21:32.598Z,93814.39
2018-07-26T04:24:00.526Z,93818.69
2018-07-26T04:26:29.224Z,93819.85
2018-07-26T04:28:56.855Z,93823.91
2018-07-26T04:31:24.598Z,93825.30
2018-07-26T04:33:52.210Z,93831.97
2018-07-26T04:36:19.826Z,93829.39
2018-07-26T04:38:47.536Z,93833.95
2018-07-26T04:41:15.252Z,93835.58
2018-07-26T04:43:42.894Z,93840.46
2018-07-26T04:46:10.592Z,93837.71
2018-07-26T04:48:38.263Z,93840.13
2018-07-26T04:51:06.314Z,93842.45
2018-07-26T04:53:34.327Z,93836.59
2018-07-26T04:56:01.963Z,93839.77
2018-07-26T04:58:29.906Z,93838.52
2018-07-26T05:00:57.588Z,93840.06
2018-07-26T05:03:26.033Z,93843.16
2018-07-26T05:05:53.681Z,93842.11
2018-07-26T05:08:21.299Z,93845.52
2018-07-26T05:10:48.902Z,93846.57
2018-07-26T05:13:16.546Z,93847.78
2018-07-26T05:15:44.170Z,93841.48
2018-07-26T05:18:11.861Z,93842.14
2018-07-26T05:20:39.536Z,93845.42
2018-07-26T05:23:07.150Z,93844.44
2018-07-26T05:25:34.794Z,93846.59
2018-07-26T05:28:02.453Z,93840.98
2018-07-26T05:30:30.088Z,93842.93
2018-07-26T05:32:57.731Z,93850.50
2018-07-26T05:35:25.419Z,93852.13
2018-07-26T05:37:53.104Z,93847.02
2018-07-26T05:40:20.742Z,93853.20
2018-07-26T05:42:48.382Z,93842.02
2018-07-26T05:45:16.118Z,93852.72
2018-07-26T05:47:43.786Z,93846.00
2018-07-26T05:50:11.460Z,93850.78
2018-07-26T05:52:39.261Z,93847.23
2018-07-26T05:55:07.280Z,93851.97
2018-07-26T05:57:35.049Z,93846.42
2018-07-26T06:00:02.862Z,93857.00
2018-07-26T06:02:30.456Z,93863.31
2018-07-26T06:04:58.154Z,93861.44
2018-07-26T06:07:25.837Z,93860.45
2018-07-26T06:09:53.465Z,93857.02
2018-07-26T06:12:21.164Z,93858.33
2018-07-26T06:14:48.786Z,93857.48
2018-07-26T06:17:16.524Z,93859.45
2018-07-26T06:19:44.168Z,93855.59
2018-07-26T06:22:11.784Z,93858.71
2018-07-26T06:24:39.423Z,93856.25
2018-07-26T06:27:07.170Z,93857.03
2018-07-26T06:29:34.846Z,93850.94
2018-07-26T06:32:02.514Z,93856.54
2018-07-26T06:34:30.190Z,93858.72
2018-07-26T06:36:57.859Z,93861.81
2018-07-26T06:39:25.573Z,93854.55
2018-07-26T06:41:53.151Z,93855.63
2018-07-26T06:44:20.788Z,93851.98
2018-07-26T06:46:48.454Z,93847.01
2018-07-26T06:49:16.099Z,93854.62
2018-07-26T06:51:43.725Z,93849.28
2018-07-26T06:54:11.378Z,93851.06
2018-07-26T06:56:39.784Z,93848.36
2018-07-26T06:59:07.533Z,93849.96
2018-07-26T07:01:35.191Z,93852.89
2018-07-26T07:04:02.880Z,93852.89
2018-07-26T07:06:30.745Z,93856.18
2018-07-26T07:08:58.414Z,93857.87
2018-07-26T07:11:26.076Z,93859.19
2018-07-26T07:13:53.870Z,93863.90
2018-07-26T07:16:21.601Z,93862.45
2018-07-26T07:18:49.246Z,93863.21
2018-07-26T07:21:17.387Z,93862.64
2018-07-26T07:23:45.450Z,93859.85
2018-07-26T07:26:13.169Z,93854.83
2018-07-26T07:28:40.861Z,93857.91
2018-07-26T07:31:08.521Z,93850.91
2018-07-26T07:33:36.207Z,93854.78
2018-07-26T07:36:03.935Z,93859.30
2018-07-26T07:38:31.602Z,93849.31
2018-07-26T07:40:59.279Z,93854.98
2018-07-26T07:43:26.930Z,93852.28
2018-07-26T07:45:54.589Z,93855.45
2018-07-26T07:48:22.263Z,93858.86
2018-07-26T07:50:49.950Z,93857.20
2018-07-26T07:53:17.664Z,93853.64
2018-07-26T07:55:45.330Z,93851.48
2018-07-26T07:58:12.958Z,93852.48
2018-07-26T08:00:40.619Z,93857.05
2018-07-26T08:03:08.282Z,93856.49
2018-07-26T08:05:35.940Z,93847.44
2018-07-26T08:08:03.612Z,93854.59
2018-07-26T08:10:31.262Z,93850.13
2018-07-26T08:12:58.910Z,93859.69
2018-07-26T08:15:26.579Z,93852.29
2018-07-26T08:17:54.277Z,93852.48
2018-07-26T08:20:21.946Z,93858.73
2018-07-26T08:22:49.596Z,93854.77
2018-07-26T08:25:17.363Z,93858.30
2018-07-26T08:27:45.023Z,93853.47
2018-07-26T08:30:12.696Z,93859.97
2018-07-26T08:32:40.358Z,93858.75
2018-07-26T08:35:08.439Z,93859.16
2018-07-26T08:37:36.066Z,93858.61
2018-07-26T08:40:04.345Z,93852.66
2018-07-26T08:42:32.021Z,93849.97
2018-07-26T08:44:59.699Z,93857.10
2018-07-26T08:47:27.379Z,93854.29
2018-07-26T08:49:55.363Z,93851.40
2018-07-26T08:52:23.026Z,93849.38
2018-07-26T08:54:50.669Z,93856.66
2018-07-26T08:57:18.314Z,93850.87
2018-07-26T08:59:45.981Z,93849.08
2018-07-26T09:02:13.676Z,93849.53
2018-07-26T09:04:41.280Z,93843.72
2018-07-26T09:07:08.987Z,93843.84
2018-07-26T09:09:36.630Z,93838.95
2018-07-26T09:12:04.321Z,93832.42
2018-07-26T09:14:32.002Z,93838.38
2018-07-26T09:16:59.689Z,93836.15
2018-07-26T09:19:27.393Z,93834.17
2018-07-26T09:21:55.078Z,93849.06
2018-07-26T09:24:22.805Z,93837.55
2018-07-26T09:26:50.452Z,93835.24
2018-07-26T09:29:18.075Z,93841.22
2018-07-26T09:31:45.834Z,93833.13
2018-07-26T09:34:13.549Z,93840.80
2018-07-26T09:36:41.258Z,93838.78
2018-07-26T09:39:09.768Z,93838.42
2018-07-26T09:41:37.609Z,93836.04
2018-07-26T09:44:05.329Z,93835.73
2018-07-26T09:46:33.118Z,93838.68
2018-07-26T09:49:00.777Z,93839.98
2018-07-26T09:51:28.442Z,93829.23
2018-07-26T09:53:56.111Z,93845.75
2018-07-26T09:56:23.767Z,93828.59
2018-07-26T09:58:51.442Z,93846.20
2018-07-26T10:01:24.827Z,93830.03
2018-07-26T10:03:52.459Z,93831.02
2018-07-26T10:06:20.147Z,93836.25
2018-07-26T10:08:47.777Z,93841.34
2018-07-26T10:11:15.437Z,93841.28
2018-07-26T10:13:43.048Z,93832.89
2018-07-26T10:16:10.752Z,93832.52
2018-07-26T10:18:38.426Z,93834.41
2018-07-26T10:21:06.215Z,93835.19
2018-07-26T10:23:33.960Z,93815.42
2018-07-26T10:26:01.728Z,93819.67
2018-07-26T10:28:29.405Z,93821.09
2018-07-26T10:30:57.053Z,93823.99
2018-07-26T10:33:24.888Z,93816.52
2018-07-26T10:35:52.666Z,93817.17
2018-07-26T10:38:20.591Z,93815.97
2018-07-26T10:40:48.300Z,93809.64
2018-07-26T10:43:15.964Z,93810.80
2018-07-26T10:45:43.602Z,93808.27
2018-07-26T10:48:11.366Z,93812.78
2018-07-26T10:50:39.030Z,93813.97
2018-07-26T10:53:06.725Z,93805.72
2018-07-26T10:55:34.453Z,93806.09
2018-07-26T10:58:02.149Z,93806.64
2018-07-26T11:00:30.192Z,93825.17
2018-07-26T11:02:57.859Z,93814.66
2018-07-26T11:05:25.506Z,93822.97
2018-07-26T11:07:53.197Z,93816.05
2018-07-26T11:10:20.859Z,93813.41
2018-07-26T11:12:48.759Z,93807.66
2018-07-26T11:15:22.469Z,93806.37
2018-07-26T11:17:50.084Z,93808.27
2018-07-26T11:20:18.233Z,93808.48
2018-07-26T11:22:45.958Z,93807.56
2018-07-26T11:25:13.694Z,93814.37
2018-07-26T11:27:41.358Z,93808.25
2018-07-26T11:30:09.387Z,93814.30
2018-07-26T11:32:37.138Z,93805.70
2018-07-26T11:35:04.942Z,93797.81
2018-07-26T11:37:32.699Z,93809.38
2018-07-26T11:40:00.368Z,93796.48
2018-07-26T11:42:28.069Z,93788.47
2018-07-26T11:44:55.766Z,93803.20
2018-07-26T11:47:23.531Z,93798.22
2018-07-26T11:49:51.230Z,93800.08
2018-07-26T11:52:19.154Z,93796.31
2018-07-26T11:54:46.814Z,93784.05
2018-07-26T11:57:14.534Z,93777.00
2018-07-26T11:59:42.266Z,93776.52
2018-07-26T12:02:10.134Z,93781.69
2018-07-26T12:04:38.539Z,93791.64
2018-07-26T12:07:06.450Z,93781.58
2018-07-26T12:09:34.227Z,93783.45
2018-07-26T12:12:01.960Z,93785.38
2018-07-26T12:14:29.651Z,93770.99
2018-07-26T12:16:57.405Z,93772.95
2018-07-26T12:19:25.117Z,93774.83
2018-07-26T12:21:52.917Z,93770.95
2018-07-26T12:24:20.656Z,93770.72
2018-07-26T12:26:48.773Z,93766.33
2018-07-26T12:29:17.039Z,93766.84
2018-07-26T12:31:44.746Z,93767.85
2018-07-26T12:34:12.441Z,93762.72
2018-07-26T12:36:40.152Z,93762.00
2018-07-26T12:39:08.844Z,93766.13
2018-07-26T12:41:36.657Z,93760.78
2018-07-26T12:44:04.421Z,93761.64
2018-07-26T12:46:32.982Z,93756.17
2018-07-26T12:49:01.511Z,93750.98
2018-07-26T12:51:29.270Z,93748.44
2018-07-26T12:53:57.379Z,93755.55
2018-07-26T12:56:25.147Z,93751.91
2018-07-26T12:58:52.863Z,93753.37
2018-07-26T13:01:20.722Z,93742.84
2018-07-26T13:03:48.522Z,93751.98
2018-07-26T13:06:16.205Z,93746.23
2018-07-26T13:08:43.927Z,93748.47
2018-07-26T13:11:11.698Z,93746.96
2018-07-26T13:13:39.399Z,93746.78
2018-07-26T13:16:07.144Z,93746.84
2018-07-26T13:18:34.976Z,93742.57
2018-07-26T13:21:02.731Z,93736.42
2018-07-26T13:23:30.433Z,93735.08
2018-07-26T13:25:58.134Z,93736.22
2018-07-26T13:28:25.916Z,93731.39
2018-07-26T13:30:53.611Z,93717.48
2018-07-26T13:33:21.386Z,93733.92
2018-07-26T13:35:49.067Z,93730.94
2018-07-26T13:38:16.802Z,93725.73
2018-07-26T13:40:44.510Z,93734.90
2018-07-26T13:43:12.229Z,93725.80
2018-07-26T13:45:39.992Z,93725.52
2018-07-26T13:48:07.773Z,93720.87
2018-07-26T13:50:35.551Z,93724.06
2018-07-26T13:53:03.432Z,93725.80
2018-07-26T13:55:31.154Z,93747.02
2018-07-26T13:57:59.474Z,93739.34
2018-07-26T14:00:27.185Z,93730.28
2018-07-26T14:02:54.867Z,93735.45
2018-07-26T14:05:22.595Z,93731.81
2018-07-26T14:07:50.298Z,93729.10
2018-07-26T14:10:18.046Z,93729.83
2018-07-26T14:12:45.735Z,93726.17
2018-07-26T14:15:13.464Z,93720.06
2018-07-26T14:17:41.194Z,93726.02
2018-07-26T14:20:09.950Z,93721.23
2018-07-26T14:22:38.086Z,93718.52
2018-07-26T14:25:05.811Z,93716.61
2018-07-26T14:27:33.562Z,93718.69
2018-07-26T14:30:01.481Z,93716.93
2018-07-26T14:32:29.165Z,93713.73
2018-07-26T14:34:56.834Z,93716.85
2018-07-26T14:37:24.535Z,93713.12
2018-07-26T14:39:52.268Z,93712.38
2018-07-26T14:42:20.098Z,93705.15
2018-07-26T14:44:47.858Z,93705.45
2018-07-26T14:47:15.611Z,93706.51
2018-07-26T14:49:43.400Z,93699.09
2018-07-26T14:52:11.158Z,93700.69
2018-07-26T14:54:38.907Z,93703.74
2018-07-26T14:57:06.772Z,93699.09
2018-07-26T14:59:34.433Z,93703.86
2018-07-26T15:02:02.200Z,93705.22
2018-07-26T15:04:29.875Z,93696.88
2018-07-26T15:06:57.937Z,93704.59
2018-07-26T15:09:25.621Z,93708.64
2018-07-26T15:11:53.363Z,93709.13
2018-07-26T15:14:21.070Z,93710.00
2018-07-26T15:16:48.807Z,93699.58
2018-07-26T15:19:16.607Z,93694.01
2018-07-26T15:21:44.374Z,93695.86
2018-07-26T15:24:12.966Z,93698.56
2018-07-26T15:26:40.687Z,93690.92
2018-07-26T15:29:08.394Z,93696.02
2018-07-26T15:31:36.121Z,93696.02
2018-07-26T15:34:03.835Z,93692.89
2018-07-26T15:36:31.542Z,93693.62
2018-07-26T15:38:59.289Z,93702.14
2018-07-26T15:41:27.067Z,93697.25
2018-07-26T15:43:54.764Z,93701.06
2018-07-26T15:46:22.490Z,93696.75
2018-07-26T15:48:50.185Z,93680.79
2018-07-26T15:51:17.935Z,93691.45
2018-07-26T15:53:45.606Z,93686.05
2018-07-26T15:56:13.318Z,93683.39
2018-07-26T15:58:41.192Z,93689.94
2018-07-26T16:01:08.904Z,93691.45
2018-07-26T16:03:36.672Z,93680.44
2018-07-26T16:06:04.419Z,93681.16
2018-07-26T16:08:32.099Z,93675.23
2018-07-26T16:10:59.847Z,93673.42
2018-07-26T16:13:27.570Z,93675.80
2018-07-26T16:15:55.309Z,93675.80
2018-07-26T16:18:23.051Z,93680.84
2018-07-26T16:20:50.810Z,93676.14
2018-07-26T16:23:18.561Z,93680.23
2018-07-26T16:25:46.259Z,93686.30
2018-07-26T16:28:13.950Z,93687.24
2018-07-26T16:30:41.658Z,93691.66
2018-07-26T16:33:09.404Z,93681.77
2018-07-26T16:35:37.081Z,93684.58
2018-07-26T16:38:05.150Z,93686.20
2018-07-26T16:40:33.728Z,93688.41
2018-07-26T16:43:01.435Z,93686.53
2018-07-26T16:45:29.254Z,93688.41
2018-07-26T16:47:56.915Z,93686.17
2018-07-26T16:50:24.625Z,93688.05
2018-07-26T16:52:52.753Z,93690.39
2018-07-26T16:55:20.516Z,93693.72
2018-07-26T16:57:48.235Z,93688.54
2018-07-26T17:00:16.269Z,93697.13
2018-07-26T17:02:43.939Z,93689.41
2018-07-26T17:05:11.652Z,93689.30
2018-07-26T17:07:39.407Z,93694.19
2018-07-26T17:10:07.983Z,93688.07
2018-07-26T17:12:36.485Z,93689.30
2018-07-26T17:15:04.890Z,93689.52
2018-07-26T17:17:32.646Z,93697.98
2018-07-26T17:20:00.402Z,93691.88
2018-07-26T17:22:28.127Z,93695.17
2018-07-26T17:24:55.848Z,93695.30
2018-07-26T17:27:23.536Z,93690.78
2018-07-26T17:29:51.270Z,93701.67
2018-07-26T17:32:19.053Z,93702.00
2018-07-26T17:34:46.905Z,93701.92
2018-07-26T17:37:14.803Z,93698.50
2018-07-26T17:39:42.466Z,93694.34
2018-07-26T17:42:10.162Z,93693.54
2018-07-26T17:44:37.902Z,93688.02
2018-07-26T17:47:05.698Z,93692.86
2018-07-26T17:49:33.433Z,93701.25
2018-07-26T17:52:01.138Z,93702.50
2018-07-26T17:54:28.827Z,93701.99
2018-07-26T17:56:56.617Z,93695.75
2018-07-26T17:59:24.367Z,93705.78
2018-07-26T18:01:52.059Z,93697.19
2018-07-26T18:04:19.779Z,93707.39
2018-07-26T18:06:47.458Z,93703.20
2018-07-26T18:09:15.468Z,93707.73
2018-07-26T18:11:43.183Z,93709.30
2018-07-26T18:14:10.878Z,93713.33
2018-07-26T18:16:38.640Z,93717.84
2018-07-26T18:19:06.380Z,93719.55
2018-07-26T18:21:34.082Z,93712.79
2018-07-26T18:24:01.751Z,93714.69
2018-07-26T18:26:29.481Z,93720.36
2018-07-26T18:28:57.318Z,93714.39
2018-07-26T18:31:25.276Z,93717.44
2018-07-26T18:33:53.068Z,93718.64
2018-07-26T18:36:20.841Z,93714.95
2018-07-26T18:38:48.562Z,93711.05
2018-07-26T18:41:16.298Z,93721.67
2018-07-26T18:43:44.040Z,93721.28
2018-07-26T18:46:12.019Z,93723.52
2018-07-26T18:48:40.374Z,93726.60
2018-07-26T18:51:08.111Z,93731.13
2018-07-26T18:53:35.850Z,93731.22
2018-07-26T18:56:03.617Z,93731.64
2018-07-26T18:58:31.305Z,93735.09
2018-07-26T19:00:59.046Z,93733.58
2018-07-26T19:03:26.814Z,93731.41
2018-07-26T19:05:54.537Z,93733.41
2018-07-26T19:08:22.289Z,93740.52
2018-07-26T19:10:50.029Z,93737.45
2018-07-26T19:13:17.800Z,93743.83
2018-07-26T19:15:45.614Z,93751.52
2018-07-26T19:18:13.345Z,93746.48
2018-07-26T19:20:41.027Z,93751.86
2018-07-26T19:23:08.749Z,93751.47
2018-07-26T19:25:36.458Z,93760.61
2018-07-26T19:28:04.204Z,93763.96
2018-07-26T19:30:31.921Z,93762.84
2018-07-26T19:32:59.665Z,93773.21
2018-07-26T19:35:27.402Z,93769.02
2018-07-26T19:37:55.194Z,93766.53
2018-07-26T19:40:23.068Z,93766.59
2018-07-26T19:42:50.781Z,93768.20
2018-07-26T19:45:18.477Z,93769.26
2018-07-26T19:47:46.177Z,93771.05
2018-07-26T19:50:13.967Z,93771.88
2018-07-26T19:52:41.679Z,93774.94
2018-07-26T19:55:10.078Z,93781.22
2018-07-26T19:57:37.790Z,93782.20
2018-07-26T20:00:06.183Z,93779.45
2018-07-26T20:02:34.188Z,93782.20
2018-07-26T20:05:01.893Z,93780.78
2018-07-26T20:07:29.606Z,93774.34
2018-07-26T20:09:57.331Z,93773.37
2018-07-26T20:12:25.241Z,93775.60
2018-07-26T20:14:52.970Z,93778.33
2018-07-26T20:17:20.663Z,93774.35
2018-07-26T20:19:48.400Z,93769.52
2018-07-26T20:22:17.236Z,93770.87
2018-07-26T20:24:44.968Z,93775.77
2018-07-26T20:27:12.678Z,93775.80
2018-07-26T20:29:40.556Z,93778.75
2018-07-26T20:32:08.223Z,93779.62
2018-07-26T20:34:36.000Z,93779.05
2018-07-26T20:37:03.750Z,93778.52
2018-07-26T20:39:31.457Z,93776.94
2018-07-26T20:41:59.210Z,93782.89
2018-07-26T20:44:26.911Z,93773.22
2018-07-26T20:46:54.682Z,93774.27
2018-07-26T20:49:22.387Z,93785.55
2018-07-26T20:51:50.155Z,93783.97
2018-07-26T20:54:17.926Z,93783.16
2018-07-26T20:56:45.622Z,93783.99
2018-07-26T20:59:13.387Z,93782.95
2018-07-26T21:01:41.086Z,93787.23
2018-07-26T21:04:08.778Z,93788.06
2018-07-26T21:06:36.456Z,93789.70
2018-07-26T21:09:06.331Z,93792.64
2018-07-26T21:11:34.067Z,93793.66
2018-07-26T21:14:02.007Z,93790.48
2018-07-26T21:16:29.707Z,93791.57
2018-07-26T21:18:57.408Z,93785.65
2018-07-26T21:21:25.115Z,93796.39
2018-07-26T21:23:52.825Z,93789.98
2018-07-26T21:26:20.494Z,93796.41
2018-07-26T21:28:48.187Z,93797.23
2018-07-26T21:31:15.900Z,93799.39
2018-07-26T21:33:43.742Z,93791.05
2018-07-26T21:36:11.410Z,93794.30
2018-07-26T21:38:39.105Z,93798.09
2018-07-26T21:41:06.843Z,93797.27
2018-07-26T21:43:34.538Z,93789.97
2018-07-26T21:46:02.222Z,93793.75
2018-07-26T21:48:29.879Z,93794.36
2018-07-26T21:50:57.950Z,93792.23
2018-07-26T21:53:25.630Z,93797.61
2018-07-26T21:55:53.347Z,93792.80
2018-07-26T21:58:21.329Z,93798.69
2018-07-26T22:00:54.675Z,93799.19
2018-07-26T22:03:22.410Z,93800.55
2018-07-26T22:05:50.157Z,93801.88
2018-07-26T22:08:17.871Z,93800.81
2018-07-26T22:10:45.810Z,93804.03
2018-07-26T22:13:13.541Z,93806.69
2018-07-26T22:15:41.241Z,93806.17
2018-07-26T22:18:08.963Z,93798.13
2018-07-26T22:20:36.925Z,93801.33
2018-07-26T22:23:04.689Z,93793.31
2018-07-26T22:25:32.390Z,93793.58
2018-07-26T22:28:00.078Z,93799.21
2018-07-26T22:30:27.783Z,93791.45
2018-07-26T22:32:55.519Z,93797.59
2018-07-26T22:35:23.202Z,93796.00
2018-07-26T22:37:50.878Z,93791.16
2018-07-26T22:40:18.568Z,93794.90
2018-07-26T22:42:46.295Z,93796.50
2018-07-26T22:45:14.003Z,93792.74
2018-07-26T22:47:41.758Z,93791.94
2018-07-26T22:50:09.456Z,93788.63
2018-07-26T22:52:37.144Z,93789.97
2018-07-26T22:55:04.866Z,93787.24
2018-07-26T22:57:32.603Z,93790.21
2018-07-26T23:00:00.290Z,93783.00
2018-07-26T23:02:27.986Z,93780.57
2018-07-26T23:04:55.711Z,93779.47
2018-07-26T23:07:23.401Z,93778.12
2018-07-26T23:09:51.075Z,93782.32
2018-07-26T23:12:18.727Z,93780.61
2018-07-26T23:14:46.447Z,93789.60
2018-07-26T23:17:14.155Z,93781.87
2018-07-26T23:19:41.830Z,93786.94
2018-07-26T23:22:09.523Z,93788.41
2018-07-26T23:24:37.166Z,93780.96
2018-07-26T23:27:04.930Z,93783.44
2018-07-26T23:29:32.591Z,93783.10
2018-07-26T23:32:00.266Z,93786.33
2018-07-26T23:34:27.941Z,93788.52
2018-07-26T23:36:55.635Z,93782.91
2018-07-26T23:39:23.472Z,93780.73
2018-07-26T23:41:51.179Z,93780.72
2018-07-26T23:44:18.882Z,93777.68
2018-07-26T23:46:46.635Z,93778.77
2018-07-26T23:49:14.295Z,93772.34
2018-07-26T23:51:41.986Z,93772.07
2018-07-26T23:54:09.698Z,93775.02
2018-07-26T23:56:37.375Z,93770.12
2018-07-26T23:59:05.396Z,93769.09
